Tuesday, January 16, 2018, 6:54 AM EST
Back to Local

KBFD, Bradford Regional Airport

Location: Cyclone, PA, United States Lat: 41.8
Local Time: 6:54 AM EST (11:54 GMT) Lon: -78.633
Time Zone: US/Eastern Elev: 2142 ft

Show me the last for .
Show Decoded

2018-01-16 06:33 METAR KBFD 161133Z AUTO VRB03KT 4SM -SN BR FEW008 BKN055 OVC070 M07/M08 A3026
                 RMK AO2 P0000 T10671083 =
2018-01-16 05:53 METAR KBFD 161053Z AUTO 00000KT 3SM -SN BR OVC046 M07/M08 A3024 RMK AO2 SLP275
                 P0000 T10721083 =
2018-01-16 05:38 METAR KBFD 161038Z AUTO 20003KT 2 1/2SM -SN BR OVC042 M07/M08 A3024 RMK AO2
                 P0000 T10721083 =
2018-01-16 05:31 METAR KBFD 161031Z AUTO 00000KT 3SM -SN BR OVC040 M07/M08 A3024 RMK AO2 P0000
                 T10671083 =
2018-01-16 04:53 METAR KBFD 160953Z AUTO 18004KT 2 1/2SM -SN BR OVC035 M07/M08 A3023 RMK AO2
                 SLP268 P0001 T10671083 =
2018-01-16 04:18 METAR KBFD 160918Z AUTO 18004KT 2 1/2SM -SN BR OVC031 M07/M08 A3023 RMK AO2
                 P0000 T10721083 =
2018-01-16 03:53 METAR KBFD 160853Z AUTO 17004KT 1 1/2SM -SN BR OVC024 M07/M09 A3023 RMK AO2
                 SLP270 P0000 60002 T10721089 51005 =
2018-01-16 03:49 METAR KBFD 160849Z AUTO 18005KT 1 1/2SM -SN BR OVC024 M07/M09 A3023 RMK AO2
                 P0000 =
2018-01-16 03:40 METAR KBFD 160840Z AUTO 16003KT 2SM -SN BR OVC024 M07/M09 A3023 RMK AO2 P0000
                 T10721089 =
2018-01-16 03:26 METAR KBFD 160826Z AUTO 18005KT 1 3/4SM -SN BR OVC028 M07/M09 A3023 RMK AO2
                 P0000 T10721089 =
2018-01-16 03:20 METAR KBFD 160820Z AUTO 18005KT 2 1/2SM -SN BR OVC032 M07/M09 A3022 RMK AO2
                 P0000 T10721089 =
2018-01-16 03:11 METAR KBFD 160811Z AUTO VRB04KT 3SM -SN BR FEW016 OVC032 M07/M09 A3022 RMK AO2
                 P0000 T10721089 =
2018-01-16 03:02 METAR KBFD 160802Z AUTO 17005KT 2 1/2SM -SN BR FEW016 OVC033 M07/M09 A3023 RMK
                 AO2 P0000 T10721089 =
2018-01-16 02:53 METAR KBFD 160753Z AUTO 17003KT 2SM -SN BR FEW016 OVC029 M07/M09 A3023 RMK AO2
                 SLP269 P0001 T10721089 =
2018-01-16 02:40 METAR KBFD 160740Z AUTO 18005KT 2 1/2SM -SN BR OVC026 M07/M09 A3022 RMK AO2
                 P0000 T10721089 =
2018-01-16 01:53 METAR KBFD 160653Z AUTO 16006KT 1 3/4SM -SN BR OVC022 M08/M09 A3021 RMK AO2
                 SLP265 P0001 T10781094 =
2018-01-16 01:45 METAR KBFD 160645Z AUTO 15007KT 2SM -SN BR OVC022 M08/M09 A3021 RMK AO2 P0001
                 T10781094 =
2018-01-16 00:53 METAR KBFD 160553Z AUTO 14006KT 1 1/2SM -SN BR OVC027 M08/M09 A3021 RMK AO2
                 SLP264 P0000 60005 T10781094 11078 21083 56012 =
2018-01-16 00:25 METAR KBFD 160525Z AUTO 15006KT 2SM -SN BR BKN027 OVC034 M08/M10 A3021 RMK AO2
                 P0000 T10781100 =
2018-01-16 00:11 METAR KBFD 160511Z AUTO 15006KT 1 1/2SM -SN BR BKN029 OVC036 M08/M10 A3022 RMK
                 AO2 P0000 T10781100 =
2018-01-15 23:53 METAR KBFD 160453Z AUTO 15007KT 2 1/2SM -SN BR OVC037 M08/M10 A3022 RMK AO2
                 SLP268 P0000 T10781100 410781178 =
2018-01-15 23:28 METAR KBFD 160428Z AUTO 14007KT 2 1/2SM -SN BR OVC035 M08/M10 A3023 RMK AO2
                 P0000 T10781100 =
2018-01-15 22:53 METAR KBFD 160353Z AUTO 15007KT 3SM -SN BR FEW018 OVC034 M08/M10 A3024 RMK AO2
                 SLP276 P0000 T10831100 =
2018-01-15 22:40 METAR KBFD 160340Z AUTO 14006KT 2 1/2SM -SN BR OVC032 M08/M10 A3024 RMK AO2
                 P0000 T10831100 =
2018-01-15 22:28 METAR KBFD 160328Z AUTO 15007KT 2 1/2SM -SN BR OVC028 M08/M11 A3024 RMK AO2
                 P0000 T10831106 =
2018-01-15 22:15 METAR KBFD 160315Z AUTO 15006KT 2SM -SN BR OVC030 M08/M11 A3024 RMK AO2 P0000
                 T10831106 =
2018-01-15 22:10 METAR KBFD 160310Z AUTO 16006KT 1 3/4SM -SN BR OVC028 M08/M11 A3025 RMK AO2
                 P0000 T10831106 =
2018-01-15 21:53 METAR KBFD 160253Z AUTO 16006KT 2SM -SN BR OVC028 M08/M11 A3025 RMK AO2 SLP281
                 P0002 60005 T10831106 53001 =
2018-01-15 21:35 METAR KBFD 160235Z AUTO 15008KT 1 3/4SM -SN BR OVC028 M09/M11 A3025 RMK AO2
                 P0002 T10891106 =
2018-01-15 21:15 METAR KBFD 160215Z AUTO VRB06KT 2 1/2SM -SN BR FEW026 OVC031 M09/M11 A3025 RMK
                 AO2 P0000 T10891106 =
2018-01-15 21:07 METAR KBFD 160207Z AUTO VRB05KT 2 1/2SM -SN BR OVC029 M09/M11 A3024 RMK AO2
                 P0000 T10891106 =
2018-01-15 20:53 METAR KBFD 160153Z AUTO 15008KT 1 3/4SM -SN BR OVC019 M09/M11 A3024 RMK AO2
                 SLP282 P0002 T10891106 =
2018-01-15 20:48 METAR KBFD 160148Z AUTO 15007KT 1 1/2SM -SN BR OVC019 M09/M11 A3024 RMK AO2
                 P0002 =
2018-01-15 19:53 METAR KBFD 160053Z AUTO 14007KT 1SM -SN BR VV014 M09/M11 A3025 RMK AO2 SLP287
                 P0001 T10891111 =
2018-01-15 19:38 METAR KBFD 160038Z AUTO 14010KT 1SM -SN BR VV014 M09/M11 A3025 RMK AO2 P0001
                 T10941111 =
2018-01-15 18:53 METAR KBFD 152353Z AUTO 14008KT 1 1/4SM -SN OVC020 M09/M12 A3025 RMK AO2 SNB01
                 SLP288 P0000 60000 T10891117 11083 21094 56002 =
2018-01-15 18:51 METAR KBFD 152351Z AUTO 15009KT 1 1/4SM -SN OVC022 M09/M12 A3025 RMK AO2 SNB01
                 P0000 =
2018-01-15 18:42 METAR KBFD 152342Z AUTO 14007KT 2SM -SN OVC028 M09/M12 A3025 RMK AO2 SNB01 P0000
                 T10891122 =
2018-01-15 17:53 METAR KBFD 152253Z AUTO 14008KT 9SM BKN046 OVC065 M09/M12 A3025 RMK AO2
                 SNB2156E43 SLP288 P0000 T10891122 =
2018-01-15 17:44 METAR KBFD 152244Z AUTO 14008KT 7SM BKN040 OVC065 M09/M12 A3026 RMK AO2
                 SNB2156E43 P0000 T10891122 =
2018-01-15 17:24 METAR KBFD 152224Z AUTO 15008KT 3SM -SN OVC027 M09/M12 A3025 RMK AO2 SNB2156
                 P0000 T10891122 =
2018-01-15 17:03 METAR KBFD 152203Z AUTO 16009KT 1 3/4SM -SN OVC020 M08/M13 A3026 RMK AO2 SNB2156
                 P0000 T10831133 =
2018-01-15 16:53 METAR KBFD 152153Z AUTO 14008KT 9SM OVC020 M08/M13 A3026 RMK AO2 SLP289
                 T10831133 =
2018-01-15 15:53 METAR KBFD 152053Z AUTO 15008KT 10SM BKN026 M08/M13 A3026 RMK AO2 SNE1955 SLP288
                 P0000 60000 T10831133 55012 =
2018-01-15 14:53 METAR KBFD 151953Z AUTO 14011G17KT 8SM -SN SCT018 M09/M13 A3025 RMK AO2 SLP287
                 P0000 T10891128 =
2018-01-15 14:44 METAR KBFD 151944Z AUTO 14012KT 5SM -SN BKN020 M09/M13 A3025 RMK AO2 P0000
                 T10891128 =
2018-01-15 14:28 METAR KBFD 151928Z AUTO 14008KT 2 1/2SM -SN BKN028 OVC038 M09/M13 A3026 RMK AO2
                 P0000 T10941128 =
2018-01-15 13:53 METAR KBFD 151853Z AUTO 15010KT 3SM -SN BKN032 OVC043 M09/M14 A3027 RMK AO2
                 SNB37 SLP294 P0000 T10891144 =
2018-01-15 12:53 METAR KBFD 151753Z AUTO 16008KT 10SM BKN060 OVC075 M09/M17 A3029 RMK AO2 SLP301
                 T10891172 11089 21172 58025 =
2018-01-15 11:53 METAR KBFD 151653Z AUTO 16008KT 10SM OVC070 M11/M18 A3033 RMK AO2 SLP315
                 T11061178 =
2018-01-15 10:53 METAR KBFD 151553Z AUTO 15008KT 10SM OVC095 M12/M18 A3036 RMK AO2 SLP326
                 T11171178 =
2018-01-15 09:53 METAR KBFD 151453Z AUTO 15011KT 10SM BKN110 M13/M18 A3037 RMK AO2 SLP332
                 T11281178 55000 =
2018-01-15 08:53 METAR KBFD 151353Z AUTO 14011KT 10SM CLR M14/M18 A3036 RMK AO2 SLP330 T11441178
                 =
2018-01-15 07:53 METAR KBFD 151253Z AUTO 14007KT 10SM CLR M17/M19 A3038 RMK AO2 SLP337 T11671189
                 =

Support USWX by starting your Amazon purchase here.